createdAt,value
2023-02-19T00:00:10.106Z,7.99
2023-02-19T00:01:42.582Z,7.97
2023-02-19T00:03:17.645Z,7.94
2023-02-19T00:04:49.611Z,8.00
2023-02-19T00:06:21.750Z,7.99
2023-02-19T00:07:55.765Z,8.04
2023-02-19T00:09:27.678Z,7.97
2023-02-19T00:11:02.707Z,8.06
2023-02-19T00:12:35.856Z,8.00
2023-02-19T00:14:09.187Z,8.08
2023-02-19T00:15:40.809Z,8.08
2023-02-19T00:17:12.423Z,8.04
2023-02-19T00:18:44.215Z,8.05
2023-02-19T00:20:16.100Z,8.04
2023-02-19T00:21:47.835Z,8.00
2023-02-19T00:23:19.436Z,7.99
2023-02-19T00:24:51.143Z,7.96
2023-02-19T00:26:22.837Z,7.98
2023-02-19T00:27:56.101Z,7.87
2023-02-19T00:29:27.809Z,7.89
2023-02-19T00:31:04.628Z,7.92
2023-02-19T00:32:36.409Z,7.94
2023-02-19T00:34:08.190Z,7.89
2023-02-19T00:35:42.986Z,7.91
2023-02-19T00:37:14.643Z,7.89
2023-02-19T00:38:46.438Z,7.87
2023-02-19T00:40:18.210Z,7.83
2023-02-19T00:41:53.176Z,7.75
2023-02-19T00:43:28.909Z,7.79
2023-02-19T00:45:00.647Z,7.76
2023-02-19T00:46:33.168Z,7.92
2023-02-19T00:48:05.069Z,7.87
2023-02-19T00:49:43.810Z,7.85
2023-02-19T00:51:16.019Z,7.85
2023-02-19T00:52:47.904Z,7.84
2023-02-19T00:54:19.678Z,7.82
2023-02-19T00:55:51.311Z,7.76
2023-02-19T00:57:22.920Z,7.72
2023-02-19T00:58:55.934Z,7.83
2023-02-19T01:00:27.496Z,7.76
2023-02-19T01:01:59.147Z,7.77
2023-02-19T01:03:30.968Z,7.73
2023-02-19T01:05:02.614Z,7.73
2023-02-19T01:06:35.288Z,7.75
2023-02-19T01:08:06.970Z,7.71
2023-02-19T01:09:38.570Z,7.73
2023-02-19T01:11:10.584Z,7.69
2023-02-19T01:12:42.514Z,7.66
2023-02-19T01:14:15.549Z,7.68
2023-02-19T01:15:47.321Z,7.64
2023-02-19T01:17:19.098Z,7.61
2023-02-19T01:18:50.777Z,7.68
2023-02-19T01:20:22.466Z,7.65
2023-02-19T01:21:54.091Z,7.68
2023-02-19T01:23:25.722Z,7.65
2023-02-19T01:24:57.333Z,7.65
2023-02-19T01:26:29.918Z,7.69
2023-02-19T01:28:01.522Z,7.68
2023-02-19T01:29:34.514Z,7.69
2023-02-19T01:31:07.167Z,7.61
2023-02-19T01:32:38.949Z,7.60
2023-02-19T01:34:10.996Z,7.77
2023-02-19T01:35:42.604Z,7.74
2023-02-19T01:37:14.424Z,7.69
2023-02-19T01:38:46.207Z,7.65
2023-02-19T01:40:17.946Z,7.62
2023-02-19T01:41:49.569Z,7.62
2023-02-19T01:43:21.255Z,7.54
2023-02-19T01:45:22.937Z,7.52
2023-02-19T01:46:57.591Z,7.53
2023-02-19T01:48:30.919Z,7.54
2023-02-19T01:50:02.666Z,7.52
2023-02-19T01:51:34.896Z,7.47
2023-02-19T01:53:07.095Z,7.48
2023-02-19T01:54:39.445Z,7.50
2023-02-19T01:56:11.086Z,7.51
2023-02-19T01:57:44.852Z,7.48
2023-02-19T01:59:16.699Z,7.41
2023-02-19T02:00:51.766Z,7.45
2023-02-19T02:02:29.557Z,7.46
2023-02-19T02:04:01.387Z,7.42
2023-02-19T02:05:45.822Z,7.40
2023-02-19T02:07:36.009Z,7.44
2023-02-19T02:09:29.123Z,7.47
2023-02-19T02:11:01.028Z,7.35
2023-02-19T02:12:32.882Z,7.36
2023-02-19T02:14:04.744Z,7.38
2023-02-19T02:15:40.512Z,7.39
2023-02-19T02:17:16.479Z,7.38
2023-02-19T02:18:54.222Z,7.32
2023-02-19T02:20:32.329Z,7.41
2023-02-19T02:22:07.841Z,7.36
2023-02-19T02:23:44.871Z,7.34
2023-02-19T02:25:27.885Z,7.40
2023-02-19T02:27:07.174Z,7.42
2023-02-19T02:29:10.762Z,7.39
2023-02-19T02:30:44.621Z,7.41
2023-02-19T02:32:17.158Z,7.41
2023-02-19T02:33:51.984Z,7.39
2023-02-19T02:35:25.745Z,7.34
2023-02-19T02:36:57.405Z,7.39
2023-02-19T02:38:29.895Z,7.39
2023-02-19T02:40:01.847Z,7.38
2023-02-19T02:41:33.589Z,7.42
2023-02-19T02:43:05.281Z,7.30
2023-02-19T02:44:36.942Z,7.38
2023-02-19T02:46:11.651Z,7.44
2023-02-19T02:47:45.061Z,7.36
2023-02-19T02:49:19.089Z,7.42
2023-02-19T02:50:58.561Z,7.37
2023-02-19T02:52:48.567Z,7.43
2023-02-19T02:54:39.784Z,7.53
2023-02-19T02:56:11.515Z,7.53
2023-02-19T02:57:43.158Z,7.52
2023-02-19T02:59:15.686Z,7.55
2023-02-19T03:01:07.657Z,7.54
2023-02-19T03:02:40.783Z,7.51
2023-02-19T03:04:14.207Z,7.49
2023-02-19T03:05:51.732Z,7.48
2023-02-19T03:07:23.334Z,7.44
2023-02-19T03:08:56.486Z,7.37
2023-02-19T03:10:30.890Z,7.41
2023-02-19T03:12:21.447Z,7.41
2023-02-19T03:14:12.516Z,7.46
2023-02-19T03:16:03.944Z,7.49
2023-02-19T03:17:56.548Z,7.46
2023-02-19T03:19:29.585Z,7.44
2023-02-19T03:21:01.166Z,7.56
2023-02-19T03:22:33.945Z,7.60
2023-02-19T03:24:24.840Z,7.66
2023-02-19T03:26:05.601Z,7.71
2023-02-19T03:27:37.833Z,7.75
2023-02-19T03:29:25.895Z,7.75
2023-02-19T03:30:57.969Z,7.74
2023-02-19T03:32:31.263Z,7.71
2023-02-19T03:34:05.223Z,7.74
2023-02-19T03:35:40.261Z,7.73
2023-02-19T03:37:13.748Z,7.63
2023-02-19T03:38:48.283Z,7.59
2023-02-19T03:40:20.119Z,7.62
2023-02-19T03:41:56.342Z,7.63
2023-02-19T03:43:34.743Z,7.60
2023-02-19T03:45:24.624Z,7.59
2023-02-19T03:46:58.134Z,7.57
2023-02-19T03:48:32.237Z,7.55
2023-02-19T03:50:07.541Z,7.54
2023-02-19T03:51:42.172Z,7.54
2023-02-19T03:53:16.443Z,7.53
2023-02-19T03:54:50.953Z,7.54
2023-02-19T03:56:26.297Z,7.57
2023-02-19T03:57:59.269Z,7.56
2023-02-19T03:59:33.185Z,7.54
2023-02-19T04:01:05.903Z,7.58
2023-02-19T04:02:39.606Z,7.58
2023-02-19T04:04:19.343Z,7.54
2023-02-19T04:06:07.454Z,7.58
2023-02-19T04:07:52.328Z,7.55
2023-02-19T04:09:36.861Z,7.52
2023-02-19T04:11:18.768Z,7.51
2023-02-19T04:12:54.540Z,7.52
2023-02-19T04:14:31.394Z,7.49
2023-02-19T04:16:10.259Z,7.48
2023-02-19T04:17:52.305Z,7.48
2023-02-19T04:21:21.350Z,7.50
2023-02-19T04:22:57.344Z,7.46
2023-02-19T04:24:31.468Z,7.45
2023-02-19T04:26:08.045Z,7.46
2023-02-19T04:27:44.857Z,7.44
2023-02-19T04:29:16.692Z,7.39
2023-02-19T04:30:48.514Z,7.41
2023-02-19T04:32:20.371Z,7.37
2023-02-19T04:33:52.151Z,7.40
2023-02-19T04:35:23.829Z,7.44
2023-02-19T04:36:55.823Z,7.39
2023-02-19T04:38:29.146Z,7.33
2023-02-19T04:40:09.363Z,7.34
2023-02-19T04:41:43.311Z,7.31
2023-02-19T04:43:25.345Z,7.35
2023-02-19T04:45:44.082Z,7.33
2023-02-19T04:46:52.363Z,7.36
2023-02-19T04:48:24.083Z,7.38
2023-02-19T04:49:55.801Z,7.36
2023-02-19T04:51:27.654Z,7.41
2023-02-19T04:52:59.513Z,7.38
2023-02-19T04:54:32.655Z,7.43
2023-02-19T04:56:08.109Z,7.40
2023-02-19T04:57:39.855Z,7.38
2023-02-19T04:59:12.513Z,7.34
2023-02-19T05:00:44.280Z,7.41
2023-02-19T05:02:16.305Z,7.36
2023-02-19T05:03:48.294Z,7.39
2023-02-19T05:05:19.943Z,7.42
2023-02-19T05:06:51.680Z,7.43
2023-02-19T05:08:23.543Z,7.38
2023-02-19T05:09:56.806Z,7.44
2023-02-19T05:11:28.562Z,7.41
2023-02-19T05:13:00.312Z,7.40
2023-02-19T05:14:32.096Z,7.33
2023-02-19T05:16:04.897Z,7.32
2023-02-19T05:17:36.910Z,7.33
2023-02-19T05:19:10.633Z,7.33
2023-02-19T05:20:42.398Z,7.36
2023-02-19T05:22:14.165Z,7.36
2023-02-19T05:23:45.963Z,7.39
2023-02-19T05:25:22.737Z,7.36
2023-02-19T05:27:01.357Z,7.38
2023-02-19T05:28:33.061Z,7.34
2023-02-19T05:30:05.138Z,7.36
2023-02-19T05:31:36.938Z,7.40
2023-02-19T05:33:08.528Z,7.38
2023-02-19T05:34:40.103Z,7.40
2023-02-19T05:36:12.644Z,7.38
2023-02-19T05:37:44.252Z,7.36
2023-02-19T05:39:15.897Z,7.40
2023-02-19T05:40:48.948Z,7.35
2023-02-19T05:42:20.587Z,7.36
2023-02-19T05:43:52.313Z,7.31
2023-02-19T05:45:23.903Z,7.50
2023-02-19T05:46:55.541Z,7.47
2023-02-19T05:48:27.238Z,7.43
2023-02-19T05:49:58.845Z,7.46
2023-02-19T05:51:30.950Z,7.51
2023-02-19T05:53:02.873Z,7.57
2023-02-19T05:54:34.554Z,7.58
2023-02-19T05:56:27.642Z,7.65
2023-02-19T05:57:59.265Z,7.61
2023-02-19T05:59:31.637Z,7.61
2023-02-19T06:01:03.280Z,7.58
2023-02-19T06:02:35.048Z,7.69
2023-02-19T06:04:06.792Z,7.64
2023-02-19T06:05:38.402Z,7.59
2023-02-19T06:07:10.037Z,7.57
2023-02-19T06:08:41.741Z,7.71
2023-02-19T06:10:13.459Z,7.78
2023-02-19T06:11:46.551Z,7.78
2023-02-19T06:13:18.159Z,7.77
2023-02-19T06:14:49.820Z,7.76
2023-02-19T06:16:22.181Z,7.74
2023-02-19T06:17:54.169Z,7.71
2023-02-19T06:19:25.852Z,7.70
2023-02-19T06:21:00.872Z,7.69
2023-02-19T06:22:32.506Z,7.65
2023-02-19T06:24:06.051Z,7.68
2023-02-19T06:25:38.127Z,7.65
2023-02-19T06:27:11.117Z,7.65
2023-02-19T06:28:42.833Z,7.61
2023-02-19T06:30:14.539Z,7.60
2023-02-19T06:31:46.331Z,7.58
2023-02-19T06:33:18.106Z,7.59
2023-02-19T06:34:49.713Z,7.63
2023-02-19T06:36:21.537Z,7.62
2023-02-19T06:37:53.174Z,7.62
2023-02-19T06:39:24.884Z,7.59
2023-02-19T06:41:00.442Z,7.57
2023-02-19T06:42:33.560Z,7.55
2023-02-19T06:44:05.405Z,7.53
2023-02-19T06:45:37.173Z,7.51
2023-02-19T06:47:08.901Z,7.48
2023-02-19T06:48:41.168Z,7.50
2023-02-19T06:50:12.878Z,7.45
2023-02-19T06:51:44.567Z,7.45
2023-02-19T06:53:16.309Z,7.43
2023-02-19T06:54:47.968Z,7.46
2023-02-19T06:56:25.192Z,7.44
2023-02-19T06:57:58.257Z,7.40
2023-02-19T06:59:29.915Z,7.40
2023-02-19T07:01:01.651Z,7.34
2023-02-19T07:02:33.442Z,7.39
2023-02-19T07:04:05.575Z,7.36
2023-02-19T07:05:37.351Z,7.34
2023-02-19T07:07:10.824Z,7.33
2023-02-19T07:08:42.476Z,7.39
2023-02-19T07:10:14.146Z,7.37
2023-02-19T07:11:46.288Z,7.38
2023-02-19T07:13:19.285Z,7.38
2023-02-19T07:14:50.910Z,7.40
2023-02-19T07:16:22.944Z,7.41
2023-02-19T07:17:54.643Z,7.35
2023-02-19T07:19:26.300Z,7.33
2023-02-19T07:21:02.548Z,7.40
2023-02-19T07:22:34.264Z,7.40
2023-02-19T07:24:06.510Z,7.43
2023-02-19T07:25:38.852Z,7.48
2023-02-19T07:27:10.570Z,7.46
2023-02-19T07:28:43.798Z,7.44
2023-02-19T07:30:15.597Z,7.48
2023-02-19T07:31:47.572Z,7.54
2023-02-19T07:33:19.277Z,7.54
2023-02-19T07:34:50.968Z,7.55
2023-02-19T07:36:23.031Z,7.57
2023-02-19T07:37:54.690Z,7.61
2023-02-19T07:39:26.649Z,7.63
2023-02-19T07:40:59.002Z,7.64
2023-02-19T07:42:30.651Z,7.64
2023-02-19T07:44:04.026Z,7.68
2023-02-19T07:45:35.871Z,7.75
2023-02-19T07:47:07.547Z,7.77
2023-02-19T07:48:39.810Z,7.81
2023-02-19T07:50:13.751Z,7.83
2023-02-19T07:51:45.699Z,7.92
2023-02-19T07:53:17.294Z,7.92
2023-02-19T07:54:48.892Z,7.89
2023-02-19T07:56:20.931Z,7.83
2023-02-19T07:57:52.653Z,7.82
2023-02-19T07:59:25.705Z,7.87
2023-02-19T08:00:57.589Z,7.86
2023-02-19T08:02:47.772Z,7.90
2023-02-19T08:04:19.367Z,7.93
2023-02-19T08:05:53.687Z,7.99
2023-02-19T08:07:25.385Z,8.10
2023-02-19T08:08:57.922Z,8.18
2023-02-19T08:10:47.944Z,8.24
2023-02-19T08:12:38.376Z,8.30
2023-02-19T08:14:09.943Z,8.31
2023-02-19T08:15:43.055Z,8.35
2023-02-19T08:17:14.660Z,8.38
2023-02-19T08:18:46.540Z,8.41
2023-02-19T08:20:18.187Z,8.41
2023-02-19T08:21:50.673Z,8.53
2023-02-19T08:23:22.340Z,8.43
2023-02-19T08:24:54.012Z,8.45
2023-02-19T08:26:25.774Z,8.47
2023-02-19T08:27:57.427Z,8.47
2023-02-19T08:29:29.298Z,8.49
2023-02-19T08:31:04.229Z,8.45
2023-02-19T08:32:35.999Z,8.41
2023-02-19T08:34:07.652Z,8.48
2023-02-19T08:35:39.599Z,8.51
2023-02-19T08:37:11.319Z,8.49
2023-02-19T08:38:43.038Z,8.47
2023-02-19T08:40:14.761Z,8.43
2023-02-19T08:41:46.550Z,8.39
2023-02-19T08:43:21.650Z,8.35
2023-02-19T08:44:53.428Z,8.34
2023-02-19T08:46:26.684Z,8.41
2023-02-19T08:47:58.447Z,8.40
2023-02-19T08:49:30.221Z,8.37
2023-02-19T08:51:07.106Z,8.35
2023-02-19T08:52:38.744Z,8.37
2023-02-19T08:54:11.068Z,8.32
2023-02-19T08:55:42.803Z,8.36
2023-02-19T08:57:14.594Z,8.35
2023-02-19T08:58:46.355Z,8.34
2023-02-19T09:00:18.115Z,8.32
2023-02-19T09:01:52.670Z,8.31
2023-02-19T09:03:24.516Z,8.33
2023-02-19T09:04:56.156Z,8.29
2023-02-19T09:06:27.817Z,8.23
2023-02-19T09:07:59.621Z,8.31
2023-02-19T09:09:32.972Z,8.34
2023-02-19T09:11:07.414Z,8.41
2023-02-19T09:12:40.193Z,8.47
2023-02-19T09:14:11.890Z,8.39
2023-02-19T09:15:43.637Z,8.38
2023-02-19T09:17:16.642Z,8.39
2023-02-19T09:18:48.287Z,8.26
2023-02-19T09:20:19.951Z,8.32
2023-02-19T09:21:51.701Z,8.37
2023-02-19T09:23:23.405Z,8.35
2023-02-19T09:24:55.097Z,8.33
2023-02-19T09:26:26.825Z,8.31
2023-02-19T09:27:58.642Z,8.40
2023-02-19T09:29:30.400Z,8.34
2023-02-19T09:31:04.170Z,8.31
2023-02-19T09:32:37.223Z,8.35
2023-02-19T09:34:08.891Z,8.36
2023-02-19T09:35:40.739Z,8.32
2023-02-19T09:37:12.470Z,8.38
2023-02-19T09:38:44.306Z,8.36
2023-02-19T09:40:21.452Z,8.37
2023-02-19T09:41:53.826Z,8.47
2023-02-19T09:43:26.505Z,8.41
2023-02-19T09:45:01.798Z,8.38
2023-02-19T09:46:34.975Z,8.48
2023-02-19T09:48:10.393Z,8.52
2023-02-19T09:49:43.576Z,8.49
2023-02-19T09:51:15.352Z,8.53
2023-02-19T09:52:48.927Z,8.54
2023-02-19T09:54:22.034Z,8.61
2023-02-19T09:55:53.908Z,8.55
2023-02-19T09:57:26.098Z,8.59
2023-02-19T09:59:00.771Z,8.62
2023-02-19T10:00:33.468Z,8.58
2023-02-19T10:02:12.532Z,8.63
2023-02-19T10:03:50.549Z,8.62
2023-02-19T10:05:24.556Z,8.58
2023-02-19T10:07:00.948Z,8.63
2023-02-19T10:08:47.427Z,8.73
2023-02-19T10:10:27.860Z,8.79
2023-02-19T10:12:04.959Z,8.73
2023-02-19T10:13:37.776Z,8.87
2023-02-19T10:15:14.485Z,8.84
2023-02-19T10:16:49.204Z,8.85
2023-02-19T10:18:22.830Z,8.81
2023-02-19T10:19:56.366Z,8.86
2023-02-19T10:21:28.588Z,8.85
2023-02-19T10:23:01.588Z,8.87
2023-02-19T10:24:33.392Z,8.90
2023-02-19T10:26:05.372Z,8.87
2023-02-19T10:27:37.115Z,8.83
2023-02-19T10:29:09.724Z,8.84
2023-02-19T10:30:41.545Z,8.89
2023-02-19T10:32:14.903Z,8.95
2023-02-19T10:33:50.461Z,8.97
2023-02-19T10:35:31.528Z,9.00
2023-02-19T10:37:36.327Z,8.95
2023-02-19T10:39:30.558Z,8.98
2023-02-19T10:41:05.755Z,9.11
2023-02-19T10:42:39.669Z,9.10
2023-02-19T10:44:18.342Z,9.11
2023-02-19T10:45:56.423Z,9.23
2023-02-19T10:47:29.600Z,9.27
2023-02-19T10:49:02.291Z,9.20
2023-02-19T10:50:39.305Z,9.20
2023-02-19T10:52:17.644Z,9.09
2023-02-19T10:53:50.247Z,9.06
2023-02-19T10:55:26.703Z,9.14
2023-02-19T10:57:15.691Z,8.98
2023-02-19T10:58:47.722Z,8.96
2023-02-19T11:00:25.171Z,9.07
2023-02-19T11:01:57.654Z,9.05
2023-02-19T11:03:30.847Z,9.01
2023-02-19T11:05:05.674Z,9.15
2023-02-19T11:06:38.732Z,9.20
2023-02-19T11:08:19.874Z,9.20
2023-02-19T11:09:54.105Z,9.14
2023-02-19T11:11:28.742Z,9.28
2023-02-19T11:13:09.579Z,9.39
2023-02-19T11:14:42.139Z,9.33
2023-02-19T11:16:16.592Z,9.41
2023-02-19T11:18:03.112Z,9.48
2023-02-19T11:19:36.902Z,9.55
2023-02-19T11:21:23.232Z,9.44
2023-02-19T11:22:58.215Z,9.55
2023-02-19T11:24:37.592Z,9.59
2023-02-19T11:26:16.848Z,9.66
2023-02-19T11:27:59.502Z,9.69
2023-02-19T11:29:34.829Z,9.75
2023-02-19T11:31:23.115Z,9.63
2023-02-19T11:32:55.040Z,9.68
2023-02-19T11:34:33.164Z,9.57
2023-02-19T11:36:24.284Z,9.67
2023-02-19T11:37:58.572Z,9.64
2023-02-19T11:39:30.945Z,9.75
2023-02-19T11:41:04.929Z,9.67
2023-02-19T11:42:41.149Z,9.71
2023-02-19T11:44:19.199Z,9.78
2023-02-19T11:45:52.767Z,9.75
2023-02-19T11:47:39.418Z,9.84
2023-02-19T11:49:17.771Z,9.94
2023-02-19T11:50:54.594Z,10.13
2023-02-19T11:52:29.445Z,10.17
2023-02-19T11:54:17.963Z,10.14
2023-02-19T11:55:54.778Z,10.34
2023-02-19T11:57:35.948Z,10.29
2023-02-19T11:59:09.877Z,10.26
2023-02-19T12:00:43.297Z,10.05
2023-02-19T12:02:48.309Z,10.30
2023-02-19T12:04:57.165Z,10.33
2023-02-19T12:06:30.060Z,10.49
2023-02-19T12:08:30.693Z,10.27
2023-02-19T12:10:17.100Z,10.64
2023-02-19T12:12:04.775Z,10.51
2023-02-19T12:13:59.572Z,10.22
2023-02-19T12:15:35.311Z,10.21
2023-02-19T12:17:08.746Z,10.34
2023-02-19T12:19:09.594Z,10.06
2023-02-19T12:20:49.039Z,10.22
2023-02-19T12:22:33.321Z,10.33
2023-02-19T12:25:00.182Z,10.34
2023-02-19T12:27:01.174Z,10.37
2023-02-19T12:29:21.741Z,10.14
2023-02-19T12:31:28.756Z,10.20
2023-02-19T12:33:37.507Z,10.06
2023-02-19T12:36:00.950Z,10.14
2023-02-19T12:38:17.273Z,10.30
2023-02-19T12:40:48.231Z,10.44
2023-02-19T12:42:42.332Z,10.78
2023-02-19T12:44:17.288Z,10.90
2023-02-19T12:45:52.343Z,10.70
2023-02-19T12:47:28.642Z,10.51
2023-02-19T12:49:03.653Z,10.79
2023-02-19T12:50:35.402Z,10.91
2023-02-19T12:52:08.271Z,10.77
2023-02-19T12:53:41.914Z,10.28
2023-02-19T12:55:19.465Z,10.47
2023-02-19T12:56:53.907Z,10.59
2023-02-19T12:58:30.458Z,10.33
2023-02-19T13:00:07.566Z,10.36
2023-02-19T13:01:41.860Z,10.11
2023-02-19T13:03:20.770Z,10.22
2023-02-19T13:04:56.007Z,10.35
2023-02-19T13:06:33.538Z,10.28
2023-02-19T13:08:06.996Z,10.45
2023-02-19T13:09:45.407Z,10.72
2023-02-19T13:11:19.586Z,11.04
2023-02-19T13:12:51.760Z,11.44
2023-02-19T13:14:27.600Z,11.25
2023-02-19T13:16:01.096Z,11.12
2023-02-19T13:17:40.441Z,10.91
2023-02-19T13:19:15.169Z,10.64
2023-02-19T13:20:47.864Z,10.62
2023-02-19T13:22:41.081Z,10.60
2023-02-19T13:24:15.200Z,10.42
2023-02-19T13:25:58.719Z,10.29
2023-02-19T13:27:41.732Z,10.05
2023-02-19T13:29:20.260Z,10.00
2023-02-19T13:31:11.261Z,9.92
2023-02-19T13:32:52.583Z,9.89
2023-02-19T13:34:35.919Z,9.77
2023-02-19T13:36:12.179Z,9.93
2023-02-19T13:37:43.900Z,9.90
2023-02-19T13:39:22.111Z,10.57
2023-02-19T13:40:56.005Z,10.75
2023-02-19T13:42:32.723Z,11.07
2023-02-19T13:44:06.025Z,11.35
2023-02-19T13:45:39.558Z,11.32
2023-02-19T13:47:44.316Z,11.09
2023-02-19T13:49:38.380Z,11.06
2023-02-19T13:51:38.495Z,11.55
2023-02-19T13:53:53.920Z,12.25
2023-02-19T13:55:52.513Z,12.30
2023-02-19T13:57:26.643Z,12.31
2023-02-19T13:59:00.872Z,12.09
2023-02-19T14:00:49.441Z,12.45
2023-02-19T14:02:31.378Z,12.27
2023-02-19T14:04:07.755Z,11.52
2023-02-19T14:06:00.305Z,11.90
2023-02-19T14:07:51.089Z,12.32
2023-02-19T14:09:46.636Z,11.35
2023-02-19T14:11:18.750Z,11.34
2023-02-19T14:12:50.521Z,11.21
2023-02-19T14:14:26.468Z,11.36
2023-02-19T14:15:58.295Z,11.22
2023-02-19T14:17:38.370Z,10.96
2023-02-19T14:19:13.551Z,10.43
2023-02-19T14:20:56.765Z,10.27
2023-02-19T14:23:05.154Z,10.21
2023-02-19T14:24:38.455Z,10.59
2023-02-19T14:26:10.504Z,10.93
2023-02-19T14:27:48.225Z,11.35
2023-02-19T14:29:25.071Z,11.42
2023-02-19T14:30:57.818Z,11.43
2023-02-19T14:32:34.185Z,10.75
2023-02-19T14:34:07.103Z,10.87
2023-02-19T14:35:43.595Z,11.02
2023-02-19T14:37:17.014Z,11.38
2023-02-19T14:38:53.119Z,11.48
2023-02-19T14:40:30.956Z,11.65
2023-02-19T14:42:04.963Z,11.94
2023-02-19T14:43:36.777Z,11.84
2023-02-19T14:45:09.208Z,11.83
2023-02-19T14:46:45.238Z,11.89
2023-02-19T14:48:19.716Z,11.82
2023-02-19T14:49:52.333Z,12.02
2023-02-19T14:51:28.434Z,11.90
2023-02-19T14:53:00.988Z,11.73
2023-02-19T14:54:45.007Z,11.78
2023-02-19T14:56:21.561Z,11.77
2023-02-19T14:57:54.321Z,11.71
2023-02-19T14:59:27.330Z,11.42
2023-02-19T15:00:59.081Z,11.13
2023-02-19T15:02:31.441Z,11.15
2023-02-19T15:04:03.179Z,10.99
2023-02-19T15:05:38.646Z,10.81
2023-02-19T15:07:11.561Z,10.75
2023-02-19T15:08:45.096Z,10.59
2023-02-19T15:10:18.780Z,10.59
2023-02-19T15:11:51.795Z,10.32
2023-02-19T15:13:25.716Z,10.34
2023-02-19T15:14:59.512Z,10.25
2023-02-19T15:16:32.402Z,10.09
2023-02-19T15:18:04.302Z,9.98
2023-02-19T15:19:42.246Z,9.89
2023-02-19T15:21:23.319Z,9.89
2023-02-19T15:22:55.130Z,9.96
2023-02-19T15:24:28.254Z,9.86
2023-02-19T15:26:00.480Z,9.80
2023-02-19T15:27:40.485Z,9.78
2023-02-19T15:29:13.169Z,9.83
2023-02-19T15:30:44.948Z,9.83
2023-02-19T15:32:17.375Z,9.87
2023-02-19T15:33:51.805Z,9.97
2023-02-19T15:35:25.223Z,9.86
2023-02-19T15:36:58.680Z,9.87
2023-02-19T15:38:30.603Z,9.86
2023-02-19T15:40:07.270Z,9.92
2023-02-19T15:41:42.872Z,9.85
2023-02-19T15:43:20.963Z,9.77
2023-02-19T15:44:53.559Z,9.75
2023-02-19T15:46:25.367Z,9.74
2023-02-19T15:47:58.594Z,9.64
2023-02-19T15:49:36.003Z,9.57
2023-02-19T15:51:10.338Z,9.57
2023-02-19T15:52:48.427Z,9.60
2023-02-19T15:54:22.283Z,9.45
2023-02-19T15:56:01.052Z,9.36
2023-02-19T15:57:35.738Z,9.35
2023-02-19T15:59:14.967Z,9.43
2023-02-19T16:00:47.265Z,9.43
2023-02-19T16:02:18.913Z,9.43
2023-02-19T16:03:50.563Z,9.46
2023-02-19T16:05:25.651Z,9.48
2023-02-19T16:06:58.338Z,9.46
2023-02-19T16:08:31.633Z,9.52
2023-02-19T16:10:22.165Z,9.48
2023-02-19T16:11:54.395Z,9.36
2023-02-19T16:13:27.317Z,9.28
2023-02-19T16:15:00.293Z,9.24
2023-02-19T16:16:35.357Z,9.23
2023-02-19T16:18:14.258Z,9.14
2023-02-19T16:19:49.581Z,9.16
2023-02-19T16:21:23.744Z,9.07
2023-02-19T16:23:00.301Z,9.11
2023-02-19T16:24:33.062Z,8.98
2023-02-19T16:26:05.401Z,9.01
2023-02-19T16:27:38.583Z,9.10
2023-02-19T16:29:19.813Z,9.05
2023-02-19T16:31:15.050Z,9.11
2023-02-19T16:32:53.469Z,9.05
2023-02-19T16:34:45.756Z,9.10
2023-02-19T16:36:39.863Z,9.03
2023-02-19T16:38:17.129Z,9.02
2023-02-19T16:39:56.590Z,9.01
2023-02-19T16:41:28.561Z,8.98
2023-02-19T16:43:28.072Z,8.99
2023-02-19T16:45:02.599Z,8.98
2023-02-19T16:46:35.868Z,8.93
2023-02-19T16:48:07.602Z,8.97
2023-02-19T16:49:42.422Z,8.89
2023-02-19T16:51:17.197Z,8.95
2023-02-19T16:52:55.307Z,8.93
2023-02-19T16:54:26.994Z,8.95
2023-02-19T16:55:59.769Z,8.99
2023-02-19T16:57:31.510Z,8.99
2023-02-19T16:59:03.925Z,8.99
2023-02-19T17:00:47.271Z,9.00
2023-02-19T17:02:59.128Z,8.97
2023-02-19T17:04:47.091Z,8.99
2023-02-19T17:06:21.889Z,8.95
2023-02-19T17:07:53.613Z,8.97
2023-02-19T17:11:58.052Z,8.99
2023-02-19T17:13:30.856Z,9.00
2023-02-19T17:15:02.505Z,8.96
2023-02-19T17:16:39.910Z,8.97
2023-02-19T17:18:12.060Z,8.93
2023-02-19T17:19:45.091Z,8.87
2023-02-19T17:21:18.086Z,8.82
2023-02-19T17:22:49.818Z,8.83
2023-02-19T17:24:21.430Z,8.88
2023-02-19T17:25:53.141Z,8.81
2023-02-19T17:27:24.825Z,8.80
2023-02-19T17:28:56.739Z,8.79
2023-02-19T17:30:29.341Z,8.84
2023-02-19T17:32:01.219Z,8.83
2023-02-19T17:33:32.981Z,8.80
2023-02-19T17:35:06.856Z,8.79
2023-02-19T17:36:38.760Z,8.74
2023-02-19T17:38:11.839Z,8.71
2023-02-19T17:39:43.490Z,8.69
2023-02-19T17:41:15.241Z,8.70
2023-02-19T17:42:46.895Z,8.68
2023-02-19T17:44:18.890Z,8.68
2023-02-19T17:45:50.614Z,8.72
2023-02-19T17:47:22.345Z,8.68
2023-02-19T17:48:57.107Z,8.64
2023-02-19T17:50:31.307Z,8.65
2023-02-19T17:52:03.010Z,8.68
2023-02-19T17:53:34.720Z,8.63
2023-02-19T17:55:06.808Z,8.68
2023-02-19T17:56:43.240Z,8.63
2023-02-19T17:58:15.154Z,8.61
2023-02-19T17:59:46.913Z,8.58
2023-02-19T18:01:18.700Z,8.60
2023-02-19T18:02:50.471Z,8.58
2023-02-19T18:04:22.161Z,8.65
2023-02-19T18:05:55.328Z,8.62
2023-02-19T18:07:27.003Z,8.59
2023-02-19T18:08:58.674Z,8.61
2023-02-19T18:10:30.542Z,8.54
2023-02-19T18:12:05.662Z,8.51
2023-02-19T18:13:37.278Z,8.54
2023-02-19T18:15:11.268Z,8.40
2023-02-19T18:16:49.403Z,8.41
2023-02-19T18:18:24.144Z,8.38
2023-02-19T18:19:55.889Z,8.35
2023-02-19T18:21:28.950Z,8.32
2023-02-19T18:23:01.172Z,8.28
2023-02-19T18:24:32.813Z,8.29
2023-02-19T18:26:07.070Z,8.32
2023-02-19T18:27:38.737Z,8.35
2023-02-19T18:29:10.466Z,8.34
2023-02-19T18:30:42.206Z,8.32
2023-02-19T18:32:13.925Z,8.36
2023-02-19T18:33:45.662Z,8.35
2023-02-19T18:35:17.757Z,8.36
2023-02-19T18:36:51.187Z,8.35
2023-02-19T18:38:22.817Z,8.35
2023-02-19T18:40:22.008Z,8.36
2023-02-19T18:41:54.117Z,8.31
2023-02-19T18:43:25.898Z,8.34
2023-02-19T18:45:00.104Z,8.36
2023-02-19T18:46:32.368Z,8.38
2023-02-19T18:48:04.586Z,8.35
2023-02-19T18:49:37.184Z,8.29
2023-02-19T18:51:09.753Z,8.28
2023-02-19T18:52:44.228Z,8.23
2023-02-19T18:54:15.949Z,8.19
2023-02-19T18:55:47.628Z,8.24
2023-02-19T18:57:19.431Z,8.19
2023-02-19T18:58:51.072Z,8.17
2023-02-19T19:00:25.466Z,8.19
2023-02-19T19:01:57.165Z,8.24
2023-02-19T19:03:29.687Z,8.21
2023-02-19T19:05:01.527Z,8.09
2023-02-19T19:06:33.290Z,8.09
2023-02-19T19:08:06.961Z,8.06
2023-02-19T19:09:38.644Z,8.16
2023-02-19T19:11:10.828Z,8.15
2023-02-19T19:12:43.137Z,8.15
2023-02-19T19:14:14.807Z,8.15
2023-02-19T19:15:49.826Z,8.10
2023-02-19T19:17:21.758Z,8.05
2023-02-19T19:18:53.676Z,8.08
2023-02-19T19:20:25.585Z,8.09
2023-02-19T19:21:57.658Z,8.15
2023-02-19T19:23:31.050Z,8.02
2023-02-19T19:25:02.888Z,8.00
2023-02-19T19:26:34.630Z,7.94
2023-02-19T19:28:06.590Z,8.03
2023-02-19T19:29:38.284Z,8.06
2023-02-19T19:31:10.852Z,8.03
2023-02-19T19:32:43.008Z,8.01
2023-02-19T19:34:14.701Z,8.06
2023-02-19T19:35:46.387Z,8.11
2023-02-19T19:37:18.084Z,8.11
2023-02-19T19:38:52.162Z,8.06
2023-02-19T19:40:23.925Z,8.15
2023-02-19T19:41:55.942Z,8.17
2023-02-19T19:43:28.100Z,8.07
2023-02-19T19:45:04.219Z,8.04
2023-02-19T19:46:42.442Z,8.09
2023-02-19T19:48:14.321Z,8.05
2023-02-19T19:49:47.595Z,8.01
2023-02-19T19:51:19.625Z,8.00
2023-02-19T19:52:51.688Z,8.03
2023-02-19T19:54:27.558Z,8.11
2023-02-19T19:56:00.380Z,8.08
2023-02-19T19:57:32.106Z,8.03
2023-02-19T19:59:04.065Z,8.07
2023-02-19T20:00:35.919Z,8.00
2023-02-19T20:02:07.862Z,7.99
2023-02-19T20:03:40.456Z,7.96
2023-02-19T20:05:15.487Z,8.01
2023-02-19T20:06:47.396Z,7.95
2023-02-19T20:08:19.168Z,8.00
2023-02-19T20:09:54.875Z,7.93
2023-02-19T20:11:27.113Z,7.89
2023-02-19T20:13:00.374Z,7.92
2023-02-19T20:14:32.120Z,7.91
2023-02-19T20:16:04.542Z,7.91
2023-02-19T20:17:36.666Z,8.00
2023-02-19T20:19:08.433Z,7.95
2023-02-19T20:20:42.998Z,7.83
2023-02-19T20:22:14.856Z,7.80
2023-02-19T20:23:46.620Z,7.83
2023-02-19T20:25:22.990Z,7.85
2023-02-19T20:26:58.436Z,7.80
2023-02-19T20:28:30.616Z,7.83
2023-02-19T20:30:02.372Z,7.83
2023-02-19T20:31:36.827Z,7.77
2023-02-19T20:33:14.362Z,7.77
2023-02-19T20:34:46.069Z,7.85
2023-02-19T20:36:18.179Z,7.84
2023-02-19T20:37:49.952Z,7.87
2023-02-19T20:39:22.040Z,7.87
2023-02-19T20:40:56.642Z,7.85
2023-02-19T20:42:28.574Z,7.80
2023-02-19T20:44:02.300Z,7.83
2023-02-19T20:45:38.900Z,7.81
2023-02-19T20:47:13.314Z,7.82
2023-02-19T20:48:45.011Z,7.83
2023-02-19T20:50:17.498Z,7.83
2023-02-19T20:51:53.483Z,7.80
2023-02-19T20:53:25.424Z,7.78
2023-02-19T20:54:57.292Z,7.78
2023-02-19T20:56:34.221Z,7.82
2023-02-19T20:58:06.066Z,7.76
2023-02-19T20:59:44.738Z,7.76
2023-02-19T21:01:26.430Z,7.78
2023-02-19T21:03:03.990Z,7.85
2023-02-19T21:04:40.687Z,7.80
2023-02-19T21:06:15.382Z,7.81
2023-02-19T21:07:49.096Z,7.77
2023-02-19T21:09:22.946Z,7.78